createdAt,value
2019-03-13T00:04:36.309Z,38.17
2019-03-13T00:07:24.026Z,38.13
2019-03-13T00:10:11.798Z,38.26
2019-03-13T00:12:41.858Z,38.26
2019-03-13T00:15:50.214Z,38.19
2019-03-13T00:18:18.628Z,38.16
2019-03-13T00:21:06.453Z,38.06
2019-03-13T00:23:34.850Z,38.04
2019-03-13T00:26:03.239Z,37.91
2019-03-13T00:31:26.318Z,37.86
2019-03-13T00:33:54.719Z,37.86
2019-03-13T00:36:23.111Z,37.74
2019-03-13T00:41:25.439Z,37.63
2019-03-13T00:43:53.843Z,37.64
2019-03-13T00:51:41.946Z,37.65
2019-03-13T00:56:44.328Z,37.73
2019-03-13T01:02:06.205Z,38.03
2019-03-13T01:07:10.237Z,38.28
2019-03-13T01:09:38.631Z,38.33
2019-03-13T01:12:47.144Z,38.45
2019-03-13T01:15:55.464Z,38.48
2019-03-13T01:18:23.886Z,38.52
2019-03-13T01:20:52.273Z,38.52
2019-03-13T01:23:20.678Z,38.65
2019-03-13T01:28:23.042Z,38.56
2019-03-13T01:31:10.664Z,38.52
2019-03-13T01:33:39.055Z,38.55
2019-03-13T01:41:30.034Z,38.56
2019-03-13T01:46:32.798Z,38.52
2019-03-13T01:49:01.211Z,38.48
2019-03-13T01:51:29.609Z,38.48
2019-03-13T01:53:57.999Z,38.50
2019-03-13T01:59:00.396Z,38.71
2019-03-13T02:01:28.785Z,38.59
2019-03-13T02:03:57.234Z,38.75
2019-03-13T02:06:44.879Z,38.79
2019-03-13T02:11:47.787Z,38.85
2019-03-13T02:14:16.198Z,38.94
2019-03-13T02:16:44.595Z,39.06
2019-03-13T02:19:12.991Z,39.33
2019-03-13T02:24:15.842Z,39.32
2019-03-13T02:26:44.262Z,39.19
2019-03-13T02:29:12.653Z,39.23
2019-03-13T02:31:41.042Z,39.36
2019-03-13T02:34:09.448Z,39.31
2019-03-13T02:36:37.837Z,39.25
2019-03-13T02:39:25.638Z,39.33
2019-03-13T02:41:54.012Z,39.36
2019-03-13T02:44:22.398Z,39.35
2019-03-13T02:46:50.844Z,39.35
2019-03-13T02:49:38.557Z,39.51
2019-03-13T03:22:14.684Z,44.49
2019-03-13T03:24:55.589Z,46.56
2019-03-13T03:27:23.997Z,48.05
2019-03-13T03:29:52.376Z,49.37
2019-03-13T03:32:20.792Z,50.33
2019-03-13T03:34:49.181Z,51.86
2019-03-13T03:37:17.612Z,53.46
2019-03-13T04:04:26.601Z,58.51
2019-03-13T04:06:54.992Z,59.43
2019-03-13T04:09:23.384Z,59.79
2019-03-13T04:14:25.395Z,60.90
2019-03-13T04:16:53.782Z,61.81
2019-03-13T04:21:56.509Z,64.29
2019-03-13T04:24:24.928Z,64.60
2019-03-13T04:26:53.326Z,65.07
2019-03-13T04:29:21.767Z,65.26
2019-03-13T04:31:50.163Z,65.17
2019-03-13T04:34:18.560Z,65.45
2019-03-13T04:36:46.999Z,65.69
2019-03-13T04:41:49.743Z,66.22
2019-03-13T04:46:52.195Z,66.25
2019-03-13T04:51:54.442Z,66.68
2019-03-13T04:54:22.836Z,66.68
2019-03-13T04:56:51.247Z,66.72
2019-03-13T04:59:19.645Z,66.60
2019-03-13T05:01:48.031Z,66.85
2019-03-13T05:04:35.786Z,66.93
2019-03-13T05:07:04.193Z,67.14
2019-03-13T05:09:51.959Z,66.97
2019-03-13T05:12:20.349Z,67.11
2019-03-13T05:14:48.745Z,66.98
2019-03-13T05:19:51.323Z,67.10
2019-03-13T05:24:53.985Z,66.70
2019-03-13T05:27:36.768Z,66.48
2019-03-13T05:30:45.101Z,66.66
2019-03-13T05:35:47.071Z,66.53
2019-03-13T05:38:15.463Z,66.97
2019-03-13T05:43:17.554Z,67.08
2019-03-13T05:45:45.967Z,67.18
2019-03-13T05:48:14.363Z,67.24
2019-03-13T05:50:42.766Z,67.17
2019-03-13T05:53:11.191Z,66.91
2019-03-13T05:55:39.579Z,66.79
2019-03-13T05:58:07.970Z,66.95
2019-03-13T06:03:10.140Z,66.98
2019-03-13T06:05:38.542Z,66.75
2019-03-13T06:08:26.297Z,66.79
2019-03-13T06:10:54.687Z,66.56
2019-03-13T06:13:23.085Z,66.57
2019-03-13T06:18:45.017Z,66.68
2019-03-13T06:21:13.430Z,66.55
2019-03-13T06:23:41.831Z,66.29
2019-03-13T06:26:10.227Z,66.12
2019-03-13T06:31:31.928Z,66.25
2019-03-13T06:36:34.299Z,66.08
2019-03-13T06:41:36.721Z,65.87
2019-03-13T06:44:05.216Z,66.02
2019-03-13T06:46:33.607Z,65.88
2019-03-13T06:49:42.158Z,65.99
2019-03-13T06:52:10.552Z,65.94
2019-03-13T06:54:38.947Z,65.77
2019-03-13T07:00:00.422Z,65.65
2019-03-13T07:02:48.233Z,65.69
2019-03-13T07:05:35.751Z,65.61
2019-03-13T07:08:23.385Z,65.57
2019-03-13T07:11:10.900Z,65.35
2019-03-13T07:13:58.456Z,65.34
2019-03-13T07:16:45.996Z,64.94
2019-03-13T07:19:33.545Z,64.83
2019-03-13T07:22:21.060Z,64.76
2019-03-13T07:25:08.653Z,64.71
2019-03-13T07:27:56.193Z,64.64
2019-03-13T07:30:41.547Z,64.47
2019-03-13T07:36:18.181Z,63.97
2019-03-13T07:39:05.708Z,63.94
2019-03-13T07:41:53.324Z,63.69
2019-03-13T07:47:29.936Z,63.43
2019-03-13T07:50:17.458Z,63.31
2019-03-13T07:53:05.009Z,63.08
2019-03-13T07:58:44.092Z,62.84
2019-03-13T08:01:30.872Z,62.73
2019-03-13T08:06:57.065Z,62.46
2019-03-13T08:09:44.597Z,62.25
2019-03-13T08:12:32.234Z,62.13
2019-03-13T08:18:09.257Z,61.83
2019-03-13T08:20:56.785Z,61.50
2019-03-13T08:23:44.653Z,61.33
2019-03-13T08:26:51.502Z,61.10
2019-03-13T08:29:39.066Z,60.75
2019-03-13T08:35:34.787Z,60.39
2019-03-13T08:41:32.209Z,60.30
2019-03-13T08:44:19.723Z,60.10
2019-03-13T08:47:07.359Z,59.89
2019-03-13T08:49:54.892Z,59.74
2019-03-13T08:52:42.521Z,59.54
2019-03-13T08:55:30.181Z,59.54
2019-03-13T08:58:17.816Z,59.38
2019-03-13T09:01:05.338Z,59.15
2019-03-13T09:03:52.887Z,58.99
2019-03-13T09:09:29.492Z,58.86
2019-03-13T09:12:17.020Z,58.87
2019-03-13T09:15:04.658Z,58.47
2019-03-13T09:17:52.211Z,58.18
2019-03-13T09:20:39.760Z,57.97
2019-03-13T09:23:27.292Z,57.78
2019-03-13T09:29:09.544Z,57.49
2019-03-13T09:31:57.069Z,57.17
2019-03-13T09:34:44.755Z,56.98
2019-03-13T09:37:32.271Z,56.83
2019-03-13T09:42:55.495Z,55.59
2019-03-13T09:45:43.020Z,55.09
2019-03-13T09:48:30.715Z,54.58
2019-03-13T09:51:30.503Z,54.32
2019-03-13T09:56:49.147Z,53.50
2019-03-13T09:59:43.335Z,52.86
2019-03-13T10:02:46.755Z,52.90
2019-03-13T10:05:34.273Z,52.42
2019-03-13T10:08:21.829Z,51.94
2019-03-13T10:17:10.065Z,51.92
2019-03-13T10:22:37.010Z,51.36
2019-03-13T10:25:45.374Z,50.88
2019-03-13T10:28:33.341Z,50.55
2019-03-13T10:31:20.851Z,50.45
2019-03-13T10:36:43.623Z,50.15
2019-03-13T10:39:31.146Z,50.08
2019-03-13T10:45:17.224Z,50.16
2019-03-13T10:48:04.748Z,50.02
2019-03-13T10:53:47.293Z,49.50
2019-03-13T10:56:54.141Z,49.29
2019-03-13T11:00:01.085Z,49.01
2019-03-13T11:02:48.601Z,48.30
2019-03-13T11:05:36.150Z,47.92
2019-03-13T11:08:42.991Z,47.50
2019-03-13T11:16:44.765Z,46.74
2019-03-13T11:25:00.173Z,45.68
2019-03-13T11:27:47.886Z,44.89
2019-03-13T11:30:56.225Z,45.03
2019-03-13T11:33:43.745Z,44.87
2019-03-13T11:39:09.873Z,44.63
2019-03-13T11:41:57.389Z,44.27
2019-03-13T11:47:20.521Z,43.58
2019-03-13T11:50:08.041Z,43.45
2019-03-13T11:52:55.591Z,43.54
2019-03-13T12:01:30.452Z,42.96
2019-03-13T12:04:17.969Z,42.92
2019-03-13T12:07:05.525Z,42.55
2019-03-13T12:09:53.041Z,41.36
2019-03-13T12:12:40.654Z,40.75
2019-03-13T12:15:48.971Z,40.64
2019-03-13T12:18:36.595Z,40.47
2019-03-13T12:21:44.910Z,40.71
2019-03-13T12:24:32.537Z,41.30
2019-03-13T12:27:20.129Z,42.29
2019-03-13T12:30:07.678Z,43.20
2019-03-13T12:32:55.198Z,44.02
2019-03-13T12:35:43.071Z,44.43
2019-03-13T12:38:30.580Z,44.63
2019-03-13T12:41:20.309Z,44.53
2019-03-13T12:44:28.619Z,43.90
2019-03-13T12:47:18.815Z,43.14
2019-03-13T12:50:06.353Z,42.60
2019-03-13T12:52:53.906Z,42.32
2019-03-13T12:55:41.423Z,41.29
2019-03-13T12:58:28.975Z,40.26
2019-03-13T13:01:16.499Z,39.73
2019-03-13T13:04:04.131Z,39.58
2019-03-13T13:06:51.721Z,39.84
2019-03-13T13:09:39.269Z,40.33
2019-03-13T13:12:26.793Z,40.69
2019-03-13T13:15:14.443Z,41.02
2019-03-13T13:18:02.015Z,41.20
2019-03-13T13:25:40.113Z,40.72
2019-03-13T13:31:01.534Z,39.80
2019-03-13T13:33:29.967Z,38.63
2019-03-13T13:35:58.397Z,38.42
2019-03-13T13:38:46.234Z,38.43
2019-03-13T13:41:14.605Z,38.27
2019-03-13T13:43:55.641Z,38.26
2019-03-13T13:47:18.236Z,38.25
2019-03-13T13:52:08.243Z,38.28
2019-03-13T13:57:10.856Z,38.88
2019-03-13T13:59:39.275Z,39.02
2019-03-13T14:02:07.733Z,38.75
2019-03-13T14:04:36.127Z,38.40
2019-03-13T14:07:23.882Z,37.94
2019-03-13T14:09:52.289Z,37.58
2019-03-13T14:12:20.690Z,37.51
2019-03-13T14:14:49.125Z,37.24
2019-03-13T14:17:17.522Z,37.29
2019-03-13T14:19:45.917Z,36.78
2019-03-13T14:24:48.735Z,37.10
2019-03-13T14:27:17.207Z,37.18
2019-03-13T14:29:47.174Z,36.95
2019-03-13T14:32:26.293Z,37.19
2019-03-13T14:34:54.697Z,36.99
2019-03-13T14:37:23.092Z,36.65
2019-03-13T14:39:51.513Z,36.60
2019-03-13T14:42:19.911Z,36.79
2019-03-13T14:44:48.327Z,36.85
2019-03-13T14:49:51.121Z,37.20
2019-03-13T14:54:53.565Z,37.10
2019-03-13T14:57:22.099Z,37.28
2019-03-13T14:59:50.493Z,37.22
2019-03-13T15:02:18.897Z,36.98
2019-03-13T15:07:21.233Z,37.02
2019-03-13T15:12:23.331Z,37.95
2019-03-13T15:14:51.715Z,38.63
2019-03-13T15:19:54.610Z,39.67
2019-03-13T15:24:57.689Z,40.28
2019-03-13T15:27:26.101Z,40.26
2019-03-13T15:29:54.512Z,40.47
2019-03-13T15:32:22.900Z,40.59
2019-03-13T15:37:25.303Z,41.71
2019-03-13T15:39:53.729Z,42.32
2019-03-13T15:42:22.119Z,42.67
2019-03-13T15:44:50.516Z,42.88
2019-03-13T15:47:18.931Z,43.01
2019-03-13T15:49:47.327Z,43.28
2019-03-13T15:55:44.835Z,43.79
2019-03-13T15:58:13.231Z,43.90
2019-03-13T16:00:41.626Z,43.90
2019-03-13T16:05:44.286Z,44.08
2019-03-13T16:08:12.715Z,44.37
2019-03-13T16:10:41.107Z,44.68
2019-03-13T16:13:09.506Z,44.94
2019-03-13T16:15:57.133Z,44.96
2019-03-13T16:18:25.529Z,44.84
2019-03-13T16:20:53.983Z,44.77
2019-03-13T16:23:22.391Z,44.79
2019-03-13T16:25:50.783Z,44.79
2019-03-13T16:28:19.170Z,44.85
2019-03-13T16:31:06.719Z,44.87
2019-03-13T16:33:35.141Z,44.82
2019-03-13T16:36:22.887Z,44.70
2019-03-13T16:38:51.283Z,44.63
2019-03-13T16:41:19.679Z,44.63
2019-03-13T16:43:48.146Z,44.78
2019-03-13T16:46:35.860Z,44.85
2019-03-13T16:49:23.609Z,44.74
2019-03-13T16:51:51.997Z,44.78
2019-03-13T16:54:20.421Z,44.87
2019-03-13T16:59:23.162Z,45.17
2019-03-13T17:04:25.147Z,44.99
2019-03-13T17:06:53.661Z,44.96
2019-03-13T17:09:22.247Z,44.88
2019-03-13T17:11:50.692Z,45.01
2019-03-13T17:14:19.047Z,44.98
2019-03-13T17:19:21.236Z,44.75
2019-03-13T17:24:44.457Z,44.75
2019-03-13T17:27:12.958Z,44.48
2019-03-13T17:29:41.435Z,44.37
2019-03-13T17:32:10.163Z,44.07
2019-03-13T17:34:38.555Z,44.08
2019-03-13T17:37:06.942Z,44.02
2019-03-13T17:42:09.274Z,43.98
2019-03-13T17:47:11.397Z,44.03
2019-03-13T17:49:39.867Z,44.04
2019-03-13T17:52:21.103Z,44.20
2019-03-13T17:54:49.491Z,44.29
2019-03-13T17:57:17.883Z,44.32
2019-03-13T18:02:19.853Z,44.21
2019-03-13T18:04:48.275Z,44.26
2019-03-13T18:07:16.669Z,44.38
2019-03-13T18:09:45.093Z,44.54
2019-03-13T18:14:47.830Z,44.75
2019-03-13T18:19:50.286Z,45.25
2019-03-13T18:22:20.023Z,45.36
2019-03-13T18:24:48.413Z,45.45
2019-03-13T18:27:36.153Z,45.67
2019-03-13T18:30:44.471Z,45.88
2019-03-13T18:40:56.742Z,46.29
2019-03-13T18:43:25.236Z,46.37
2019-03-13T18:45:53.728Z,46.43
2019-03-13T18:48:22.102Z,46.56
2019-03-13T18:50:50.603Z,46.68
2019-03-13T18:53:18.997Z,46.70
2019-03-13T18:55:47.521Z,46.74
2019-03-13T18:58:35.166Z,46.71
2019-03-13T19:01:22.865Z,46.71
2019-03-13T19:03:51.279Z,46.71
2019-03-13T19:06:19.782Z,46.74
2019-03-13T19:11:35.627Z,46.85
2019-03-13T19:14:04.017Z,46.92
2019-03-13T19:16:32.418Z,46.83
2019-03-13T19:21:35.085Z,46.66
2019-03-13T19:24:03.496Z,46.48
2019-03-13T19:26:31.883Z,46.36
2019-03-13T19:29:01.703Z,46.18
2019-03-13T19:34:03.951Z,45.58
2019-03-13T19:36:51.641Z,45.35
2019-03-13T19:39:22.514Z,45.11
2019-03-13T19:44:43.353Z,44.66
2019-03-13T19:47:11.745Z,44.55
2019-03-13T19:52:13.732Z,44.15
2019-03-13T19:54:42.186Z,44.09
2019-03-13T19:57:10.591Z,44.00
2019-03-13T19:59:39.111Z,43.94
2019-03-13T20:02:07.544Z,43.82
2019-03-13T20:04:46.797Z,43.90
2019-03-13T20:07:25.402Z,43.86
2019-03-13T20:10:13.127Z,43.77
2019-03-13T20:12:41.540Z,43.78
2019-03-13T20:15:49.949Z,43.77
2019-03-13T20:18:18.429Z,43.77
2019-03-13T20:20:48.467Z,43.73
2019-03-13T20:23:56.920Z,43.70
2019-03-13T20:26:25.424Z,43.65
2019-03-13T20:32:07.387Z,43.67
2019-03-13T20:34:35.853Z,43.63
2019-03-13T20:37:37.471Z,43.59
2019-03-13T20:39:53.714Z,43.55
2019-03-13T20:45:49.544Z,43.15
2019-03-13T20:53:58.445Z,42.89
2019-03-13T20:56:26.846Z,42.84
2019-03-13T21:01:28.957Z,42.61
2019-03-13T21:07:05.343Z,42.50
2019-03-13T21:09:33.807Z,42.51
2019-03-13T21:12:02.212Z,42.51
2019-03-13T21:14:30.661Z,42.45
2019-03-13T21:16:59.092Z,42.49
2019-03-13T21:19:27.479Z,42.51
2019-03-13T21:21:55.896Z,42.58
2019-03-13T21:24:24.324Z,42.50
2019-03-13T21:26:52.715Z,42.57
2019-03-13T21:29:21.117Z,42.50
2019-03-13T21:34:23.445Z,42.30
2019-03-13T21:36:51.835Z,42.41
2019-03-13T21:39:20.335Z,42.42
2019-03-13T21:42:08.053Z,42.66
2019-03-13T21:44:36.459Z,42.89
2019-03-13T21:47:04.854Z,42.96
2019-03-13T21:49:33.249Z,42.86
2019-03-13T21:54:35.643Z,42.96
2019-03-13T21:57:23.327Z,42.95
2019-03-13T21:59:51.717Z,43.06
2019-03-13T22:02:31.851Z,43.16
2019-03-13T22:04:50.261Z,43.12
2019-03-13T22:07:18.740Z,43.34
2019-03-13T22:09:47.169Z,45.35
2019-03-13T22:12:15.550Z,47.48
2019-03-13T22:14:43.953Z,49.11
2019-03-13T22:17:12.343Z,50.49
2019-03-13T22:19:40.761Z,51.60
2019-03-13T22:22:09.155Z,52.51
2019-03-13T22:24:37.547Z,53.53
2019-03-13T22:29:39.917Z,55.03
2019-03-13T22:34:42.127Z,56.30
2019-03-13T22:37:10.656Z,56.40
2019-03-13T22:39:39.027Z,56.82
2019-03-13T22:42:07.419Z,56.89
2019-03-13T22:44:35.843Z,57.39
2019-03-13T22:47:04.234Z,57.56
2019-03-13T22:49:32.632Z,57.79
2019-03-13T22:54:35.559Z,57.97
2019-03-13T22:57:05.395Z,58.28
2019-03-13T22:59:33.801Z,58.43
2019-03-13T23:02:21.559Z,58.76
2019-03-13T23:04:49.942Z,59.06
2019-03-13T23:07:37.610Z,59.17
2019-03-13T23:10:45.923Z,59.51
2019-03-13T23:13:33.627Z,59.52
2019-03-13T23:16:02.022Z,59.48
2019-03-13T23:18:30.415Z,59.56
2019-03-13T23:20:58.839Z,59.50
2019-03-13T23:23:27.233Z,59.46
2019-03-13T23:25:55.622Z,59.45
2019-03-13T23:30:58.810Z,59.56
2019-03-13T23:33:27.225Z,59.69
2019-03-13T23:35:55.654Z,59.87
2019-03-13T23:38:24.047Z,59.54
2019-03-13T23:41:11.654Z,59.54
2019-03-13T23:43:40.050Z,59.48
2019-03-13T23:46:08.441Z,59.37
2019-03-13T23:48:36.863Z,59.40
2019-03-13T23:51:05.273Z,59.21
2019-03-13T23:53:33.665Z,59.01
2019-03-13T23:56:02.085Z,58.93
2019-03-13T23:58:30.481Z,58.85
